首页
METAR-TAF:

METAR-TAF

机场 :

維多利亞, 西班牙

纬度: 42-53N, 经度: 002-43W, 海拔: 513米

当前天气观测

该预报发布于31分钟前的22:00 UTC
风速11节,风向
温度 4°C
湿度 87%
气压 1021 hPa
能見度: 6000
散云层高于2100英尺
阴天层高于2800英尺

METAR: LEVT 292200Z 36011KT 6000 SCT021 OVC028 04/02 Q1021

时间: 00:31 (22:31 UTC)

预报

该预报发布于3小时和56分钟前的18:35 UTC
预报有效从29日的 18点(UTC)到 30日的 18点(UTC)
风速9节,风向北转东北
能見度: 8000
散云层高于1000英尺
多云层高于2000英尺
短暂存在
从 29日的 18点(UTC)到 30日的 09点(UTC)
能見度: 3000
多云层高于500英尺
多云层高于1000英尺
轻雾
几率 30% :
短暂存在
从 29日的 18点(UTC)到 29日的 24点(UTC)
能見度: 3000
多云层高于1000英尺
小雪, 雨
短暂存在
从 30日的 00点(UTC)到 30日的 18点(UTC)
能見度: 3000
多云层高于1000英尺
几率 30% :
短暂存在
从 30日的 00点(UTC)到 30日的 18点(UTC)
能見度: 1500
多云层高于500英尺
多云层高于1000英尺
几率 30% :
短暂存在
从 30日的 00点(UTC)到 30日的 09点(UTC)
能見度: 1500
多云层高于500英尺
小雪, 碎片雾

TAF: LEVT 291835Z 2918/3018 02009KT 8000 SCT010 BKN020 TX07/3014Z TNM02/3006Z TEMPO 2918/3009 3000 BR BKN005 BKN010 PROB30 TEMPO 2918/2924 3000 -SNRA BKN010 TEMPO 3000/3018 3000 SN BKN010 PROB30 TEMPO 3000/3018 1500 SN BKN005 BKN010 PROB30 TEMPO 3000/3009 1500 -SN BCFG BKN005

超过4000个机场的气象观测和天气预报(METAR&TAF报告)。

可查询的气象台以黄色和红色小点在地图上表示。

将鼠标移到小点上方,可查看气象台名称。

然后点击查看天气观测和预报。

如需切换地图:点击带黑十字的绿色按钮放大地图;点击带横线的绿色按钮缩小地图;或者点击绿色箭头查看邻近地区的地图。


METAR-TAF: